Time;durP1;ratioP1;P1;durP2;ratioP2;P2;SDS_P1;SDS_P2;PMS_P1;PMS_P2;Temp;Humidity;BMP_temperature;BMP_pressure;BME280_temperature;BME280_humidity;BME280_pressure;Samples;Min_cycle;Max_cycle;Signal;HPM_P1;HPM_P2
2021/01/03 00:00:55;;;;;;;2.70;2.50;;;15.60;27.40;;;;;;5097232;28;20687;-59
2021/01/03 00:03:21;;;;;;;2.47;2.27;;;15.60;27.40;;;;;;5115138;28;20224;-59
2021/01/03 00:05:46;;;;;;;2.40;1.80;;;15.60;27.40;;;;;;5115498;28;20158;-59
2021/01/03 00:08:12;;;;;;;2.03;1.87;;;15.60;27.40;;;;;;5114883;28;20222;-60
2021/01/03 00:10:37;;;;;;;2.00;1.90;;;15.60;27.40;;;;;;5115344;28;20161;-60
2021/01/03 00:13:04;;;;;;;2.37;2.27;;;15.60;27.40;;;;;;5115175;28;20629;-59
2021/01/03 00:15:29;;;;;;;2.00;1.90;;;15.60;27.40;;;;;;5115189;28;20153;-59
2021/01/03 00:17:55;;;;;;;2.33;2.13;;;15.60;27.40;;;;;;5115212;28;20607;-59
2021/01/03 00:20:26;;;;;;;2.07;1.97;;;15.60;27.40;;;;;;5115154;28;20197;-59
2021/01/03 00:22:53;;;;;;;1.95;1.75;;;15.60;27.50;;;;;;5114652;28;20600;-59
2021/01/03 00:25:22;;;;;;;1.77;1.67;;;15.60;27.50;;;;;;5114912;28;20161;-59
2021/01/03 00:27:49;;;;;;;1.75;1.65;;;15.60;27.50;;;;;;5114951;28;20188;-60
2021/01/03 00:30:17;;;;;;;2.53;1.95;;;15.60;27.50;;;;;;5097087;28;20504;-60
2021/01/03 00:32:43;;;;;;;2.03;1.90;;;15.60;27.50;;;;;;5114702;28;20664;-60
2021/01/03 00:35:12;;;;;;;1.95;1.75;;;15.60;27.50;;;;;;5114124;28;20158;-60
2021/01/03 00:37:38;;;;;;;2.05;1.95;;;15.60;27.50;;;;;;5114311;28;20512;-60
2021/01/03 00:40:10;;;;;;;2.17;1.80;;;15.60;27.50;;;;;;5096310;28;20649;-60
2021/01/03 00:42:36;;;;;;;2.00;1.88;;;15.60;27.60;;;;;;5096404;28;20153;-60
2021/01/03 00:45:04;;;;;;;2.00;1.90;;;15.60;27.60;;;;;;5114852;28;20163;-60
2021/01/03 00:47:29;;;;;;;1.85;1.75;;;15.60;27.60;;;;;;5114718;28;20157;-60
2021/01/03 00:49:55;;;;;;;2.20;2.00;;;15.60;27.60;;;;;;5075908;28;20682;-60
2021/01/03 00:52:21;;;;;;;2.40;2.20;;;15.60;27.60;;;;;;5093639;28;20154;-60
2021/01/03 00:54:46;;;;;;;1.50;1.40;;;15.60;27.60;;;;;;5109885;28;20245;-60
2021/01/03 00:57:12;;;;;;;2.13;2.00;;;15.60;27.60;;;;;;5093939;28;20641;-60
2021/01/03 00:59:37;;;;;;;2.00;1.80;;;15.60;27.60;;;;;;5094030;28;20609;-60
2021/01/03 01:02:03;;;;;;;1.87;1.77;;;15.60;27.60;;;;;;5093900;28;20237;-60
2021/01/03 01:04:29;;;;;;;1.93;1.70;;;15.60;28.20;;;;;;5109869;28;20187;-60
2021/01/03 01:06:54;;;;;;;2.00;1.77;;;15.60;27.70;;;;;;5093763;28;20241;-60
2021/01/03 01:09:20;;;;;;;2.20;2.10;;;15.60;27.70;;;;;;5075722;28;20170;-60
2021/01/03 01:11:46;;;;;;;2.40;2.20;;;15.60;27.70;;;;;;5092606;28;20173;-59
2021/01/03 01:14:11;;;;;;;1.90;1.80;;;15.60;27.70;;;;;;5093736;28;20199;-59
2021/01/03 01:16:37;;;;;;;2.17;1.97;;;15.60;27.70;;;;;;5093675;28;20166;-59
2021/01/03 01:19:05;;;;;;;1.80;1.70;;;15.60;27.70;;;;;;5093608;28;20520;-59
2021/01/03 01:21:30;;;;;;;2.50;2.30;;;15.60;27.70;;;;;;5093885;28;20559;-60
2021/01/03 01:23:56;;;;;;;2.20;2.00;;;15.60;27.70;;;;;;5093318;28;20625;-60
2021/01/03 01:26:22;;;;;;;2.00;1.80;;;15.60;27.70;;;;;;5093809;28;20186;-59
2021/01/03 01:28:47;;;;;;;1.80;1.70;;;15.60;27.70;;;;;;5093635;28;20264;-60
2021/01/03 01:31:13;;;;;;;1.93;1.83;;;15.60;27.70;;;;;;5093546;28;20579;-60
2021/01/03 01:33:39;;;;;;;1.63;1.53;;;15.60;27.70;;;;;;5093557;28;20146;-60
2021/01/03 01:36:05;;;;;;;1.80;1.70;;;15.60;27.70;;;;;;5109539;28;20218;-60
2021/01/03 01:38:31;;;;;;;2.40;2.15;;;15.60;27.70;;;;;;5093053;28;20173;-59
2021/01/03 01:40:57;;;;;;;2.30;2.10;;;15.60;27.70;;;;;;5093591;28;20149;-60
2021/01/03 01:43:24;;;;;;;1.93;1.83;;;15.70;27.80;;;;;;5093717;28;20150;-59
2021/01/03 01:45:50;;;;;;;1.83;1.70;;;15.60;27.70;;;;;;5093477;28;20433;-60
2021/01/03 01:48:21;;;;;;;2.10;1.90;;;15.60;27.70;;;;;;5096138;28;20157;-60
2021/01/03 01:50:54;;;;;;;2.28;2.17;;;15.70;28.30;;;;;;5114747;28;20172;-60
2021/01/03 01:53:24;;;;;;;2.20;2.00;;;15.70;27.70;;;;;;5099120;28;20169;-60
2021/01/03 01:56:00;;;;;;;1.80;1.70;;;15.70;27.80;;;;;;5118112;28;20153;-60
2021/01/03 01:58:35;;;;;;;2.10;1.92;;;15.70;27.70;;;;;;5117728;28;20286;-60
2021/01/03 02:01:04;;;;;;;2.05;1.85;;;15.70;27.70;;;;;;5117768;28;20173;-60
2021/01/03 02:03:57;;;;;;;1.58;1.48;;;15.70;27.70;;;;;;5117680;28;20244;-60
2021/01/03 02:06:44;;;;;;;1.80;1.70;;;15.70;27.80;;;;;;5117800;28;20504;-60
2021/01/03 02:09:15;;;;;;;2.35;2.15;;;15.70;27.80;;;;;;5117257;28;20639;-60
2021/01/03 02:11:41;;;;;;;1.90;1.80;;;15.70;27.70;;;;;;5117686;28;20714;-59
2021/01/03 02:14:09;;;;;;;1.70;1.60;;;15.70;27.80;;;;;;5117454;28;20240;-60
2021/01/03 02:16:37;;;;;;;1.70;1.60;;;15.70;27.80;;;;;;5117519;28;20158;-59
2021/01/03 02:19:11;;;;;;;2.00;1.80;;;15.70;27.70;;;;;;5117415;28;20184;-60
2021/01/03 02:22:05;;;;;;;2.00;1.90;;;15.70;27.70;;;;;;5117535;28;20150;-59
2021/01/03 02:25:00;;;;;;;1.92;1.77;;;15.60;27.70;;;;;;5099118;28;20161;-60
2021/01/03 02:27:43;;;;;;;1.95;1.85;;;15.70;27.80;;;;;;5109496;28;20188;-60
2021/01/03 02:30:10;;;;;;;2.00;1.80;;;15.70;27.80;;;;;;5117144;28;20192;-60
2021/01/03 02:32:41;;;;;;;2.53;2.00;;;15.70;27.80;;;;;;5117132;28;20200;-60
2021/01/03 02:35:09;;;;;;;1.90;1.80;;;15.70;27.80;;;;;;5117144;28;20157;-60
2021/01/03 02:37:44;;;;;;;1.65;1.55;;;15.70;27.80;;;;;;5098295;28;20173;-60
2021/01/03 02:40:16;;;;;;;1.83;1.73;;;15.70;27.80;;;;;;5117015;28;20181;-60
2021/01/03 02:42:43;;;;;;;1.63;1.52;;;15.70;27.80;;;;;;5116895;28;20145;-60
2021/01/03 02:45:25;;;;;;;2.42;1.75;;;15.70;27.80;;;;;;5116850;28;20224;-61
2021/01/03 02:47:51;;;;;;;1.95;1.85;;;15.70;27.80;;;;;;5116792;28;20150;-61
2021/01/03 02:50:23;;;;;;;1.70;1.60;;;15.70;27.80;;;;;;5116931;28;20183;-61
2021/01/03 02:52:50;;;;;;;3.78;1.73;;;15.80;27.90;;;;;;5132566;27;20192;-61
2021/01/03 02:55:17;;;;;;;2.60;1.77;;;15.70;27.70;;;;;;5116736;28;20645;-61
2021/01/03 02:57:43;;;;;;;1.88;1.65;;;15.70;27.70;;;;;;5116813;28;20153;-61
2021/01/03 03:00:20;;;;;;;1.83;1.60;;;15.80;27.80;;;;;;5116243;28;20640;-61
2021/01/03 03:02:46;;;;;;;2.13;2.00;;;15.80;27.80;;;;;;5116492;28;20212;-60
2021/01/03 03:05:12;;;;;;;1.88;1.70;;;15.70;27.70;;;;;;5116928;28;20588;-60
2021/01/03 03:07:37;;;;;;;1.92;1.80;;;15.70;27.80;;;;;;5116063;28;20158;-60
2021/01/03 03:10:04;;;;;;;1.80;1.70;;;15.70;27.80;;;;;;5116563;28;20198;-60
2021/01/03 03:12:33;;;;;;;1.70;1.60;;;15.70;27.70;;;;;;5098215;28;20177;-61
2021/01/03 03:15:06;;;;;;;1.60;1.50;;;15.70;27.80;;;;;;5116482;28;20157;-61
2021/01/03 03:17:32;;;;;;;1.85;1.75;;;15.70;27.80;;;;;;5116153;28;20608;-61
2021/01/03 03:19:58;;;;;;;2.30;2.10;;;15.80;27.80;;;;;;5098127;28;20188;-61
2021/01/03 03:22:23;;;;;;;1.67;1.57;;;15.80;27.80;;;;;;5115714;28;20161;-61
2021/01/03 03:24:49;;;;;;;2.03;1.90;;;15.80;27.80;;;;;;5098178;28;20188;-61
2021/01/03 03:27:15;;;;;;;1.70;1.60;;;15.80;27.80;;;;;;5097851;28;20194;-60
2021/01/03 03:29:40;;;;;;;1.97;1.87;;;15.80;27.70;;;;;;5116217;28;20161;-61
2021/01/03 03:32:06;;;;;;;2.13;2.00;;;15.80;27.80;;;;;;5115992;28;20157;-61
2021/01/03 03:34:32;;;;;;;1.97;1.80;;;15.80;27.80;;;;;;5116214;28;20165;-61
2021/01/03 03:36:58;;;;;;;1.70;1.60;;;15.80;27.80;;;;;;5115679;28;20168;-61
2021/01/03 03:39:25;;;;;;;1.73;1.50;;;15.80;27.80;;;;;;5115987;28;20476;-60
2021/01/03 03:41:54;;;;;;;2.03;1.92;;;15.80;27.70;;;;;;5115954;28;20382;-61
2021/01/03 03:44:20;;;;;;;1.98;1.80;;;15.80;27.70;;;;;;5115852;28;20164;-61
2021/01/03 03:46:54;;;;;;;1.90;1.70;;;15.80;27.70;;;;;;5097759;28;20165;-60
2021/01/03 03:49:21;;;;;;;1.75;1.65;;;15.80;27.70;;;;;;5115672;28;20176;-61
2021/01/03 03:51:50;;;;;;;1.35;1.17;;;15.80;27.80;;;;;;5115685;28;20173;-61
2021/01/03 03:54:15;;;;;;;1.73;1.63;;;15.80;27.80;;;;;;5115195;28;20594;-61
2021/01/03 03:56:41;;;;;;;1.90;1.80;;;15.80;27.70;;;;;;5097478;28;20165;-61
2021/01/03 03:59:07;;;;;;;1.40;1.30;;;15.80;27.80;;;;;;5115540;28;20217;-61
2021/01/03 04:01:37;;;;;;;2.43;2.23;;;15.80;27.80;;;;;;5115513;28;20236;-60
2021/01/03 04:04:03;;;;;;;2.00;1.90;;;15.80;27.70;;;;;;5115299;28;20706;-60
2021/01/03 04:06:32;;;;;;;2.10;1.90;;;15.80;27.80;;;;;;5115811;28;20240;-60
2021/01/03 04:09:01;;;;;;;2.20;2.03;;;15.80;27.80;;;;;;5114948;28;20434;-61
2021/01/03 04:11:27;;;;;;;2.03;1.60;;;15.80;27.80;;;;;;5114537;28;20181;-61
2021/01/03 04:13:53;;;;;;;1.67;1.57;;;15.80;27.80;;;;;;5115238;28;20639;-61
2021/01/03 04:16:18;;;;;;;1.60;1.50;;;15.80;27.80;;;;;;5097182;28;20411;-61
2021/01/03 04:18:45;;;;;;;2.00;1.80;;;15.80;27.90;;;;;;5115071;28;20410;-60
2021/01/03 04:21:14;;;;;;;1.52;1.42;;;15.80;27.90;;;;;;5114985;28;20250;-61
2021/01/03 04:23:41;;;;;;;1.92;1.83;;;15.80;27.90;;;;;;5114566;28;20161;-60
2021/01/03 04:26:08;;;;;;;1.95;1.85;;;15.80;28.00;;;;;;5114930;28;20161;-61
2021/01/03 04:28:33;;;;;;;1.77;1.67;;;15.80;28.00;;;;;;5114862;28;20503;-61
2021/01/03 04:31:02;;;;;;;1.80;1.70;;;15.80;28.00;;;;;;5115066;28;20168;-60
2021/01/03 04:33:28;;;;;;;1.58;1.48;;;15.80;28.00;;;;;;5114807;28;20226;-59
2021/01/03 04:35:53;;;;;;;1.80;1.70;;;15.80;28.00;;;;;;5114861;28;20560;-60
2021/01/03 04:38:19;;;;;;;1.60;1.50;;;15.80;28.00;;;;;;5114407;28;20559;-59
2021/01/03 04:40:46;;;;;;;1.70;1.60;;;15.80;28.00;;;;;;5114555;28;20213;-60
2021/01/03 04:43:17;;;;;;;1.40;1.30;;;15.80;28.00;;;;;;5114653;28;20145;-60
2021/01/03 04:45:45;;;;;;;1.58;1.48;;;15.80;27.50;;;;;;5114637;28;20161;-60
2021/01/03 04:48:26;;;;;;;1.60;1.50;;;15.80;28.00;;;;;;5114563;28;20155;-59
2021/01/03 04:51:07;;;;;;;2.00;1.90;;;15.90;28.10;;;;;;5114518;28;20271;-60
2021/01/03 04:54:03;;;;;;;1.77;1.67;;;15.80;28.00;;;;;;5095715;28;20631;-59
2021/01/03 04:56:41;;;;;;;1.80;1.60;;;15.80;28.00;;;;;;5114658;28;20153;-59
2021/01/03 04:59:25;;;;;;;1.50;1.40;;;15.90;28.00;;;;;;5114220;28;20180;-59
2021/01/03 05:02:35;;;;;;;1.60;1.50;;;15.90;28.00;;;;;;5096154;28;20164;-60
2021/01/03 05:05:35;;;;;;;1.80;1.40;;;15.90;28.00;;;;;;5031805;28;20627;-60
2021/01/03 05:08:23;;;;;;;1.92;1.80;;;15.90;28.00;;;;;;5031181;28;20194;-59
2021/01/03 05:10:49;;;;;;;1.83;1.73;;;15.90;28.00;;;;;;5105322;28;20256;-59
2021/01/03 05:13:33;;;;;;;1.87;1.57;;;15.90;28.00;;;;;;5114089;28;20616;-60
2021/01/03 05:15:59;;;;;;;1.65;1.55;;;15.90;28.00;;;;;;5114264;28;20161;-59
2021/01/03 05:18:24;;;;;;;1.70;1.60;;;15.90;28.00;;;;;;5114067;28;20202;-59
2021/01/03 05:21:08;;;;;;;1.63;1.53;;;15.90;28.00;;;;;;5095784;28;20466;-59
2021/01/03 05:23:36;;;;;;;1.70;1.60;;;15.90;28.00;;;;;;5095232;28;20168;-60
2021/01/03 05:26:05;;;;;;;1.40;1.30;;;15.90;28.00;;;;;;5114056;28;20152;-59
2021/01/03 05:28:36;;;;;;;1.48;1.30;;;18.00;29.50;;;;;;5114160;28;20176;-59
2021/01/03 05:31:18;;;;;;;1.50;1.40;;;15.90;28.10;;;;;;5114575;28;20607;-59
2021/01/03 05:33:53;;;;;;;1.50;1.40;;;15.90;28.00;;;;;;5114018;28;20603;-60
2021/01/03 05:36:36;;;;;;;2.10;2.00;;;15.90;28.10;;;;;;5114178;28;20204;-60
2021/01/03 05:39:21;;;;;;;1.60;1.50;;;15.90;28.10;;;;;;5113395;28;20180;-60
2021/01/03 05:41:47;;;;;;;1.60;1.50;;;15.90;28.00;;;;;;5113945;28;20141;-60
2021/01/03 05:44:21;;;;;;;1.30;1.20;;;15.90;28.10;;;;;;5113805;28;20600;-60
2021/01/03 05:46:51;;;;;;;1.45;1.35;;;16.00;28.10;;;;;;5113934;28;20141;-60
2021/01/03 05:49:26;;;;;;;1.67;1.58;;;16.00;28.10;;;;;;5113749;28;20181;-60
2021/01/03 05:52:12;;;;;;;1.95;1.85;;;16.00;28.10;;;;;;5113738;28;20152;-60
2021/01/03 05:54:39;;;;;;;1.95;1.75;;;16.00;28.10;;;;;;5099491;28;20256;-60
2021/01/03 05:57:11;;;;;;;1.60;1.50;;;16.00;28.10;;;;;;5113729;28;20168;-60
2021/01/03 05:59:39;;;;;;;1.70;1.60;;;16.00;28.10;;;;;;5113779;28;20319;-60
2021/01/03 06:02:27;;;;;;;1.52;1.42;;;16.00;28.10;;;;;;5113429;28;20150;-59
2021/01/03 06:05:15;;;;;;;1.23;1.13;;;16.00;28.10;;;;;;5114148;28;20222;-60
2021/01/03 06:08:05;;;;;;;1.73;1.20;;;16.00;28.10;;;;;;5113035;28;20185;-59
2021/01/03 06:10:40;;;;;;;1.60;1.50;;;16.00;28.10;;;;;;5113673;28;20534;-60
2021/01/03 06:13:09;;;;;;;1.95;1.80;;;16.00;28.10;;;;;;5113543;28;20191;-60
2021/01/03 06:15:57;;;;;;;1.30;1.20;;;16.00;28.10;;;;;;5129638;28;20177;-60
2021/01/03 06:18:35;;;;;;;1.80;1.70;;;16.10;28.20;;;;;;5113596;28;20619;-60
2021/01/03 06:21:00;;;;;;;1.95;1.77;;;16.10;28.10;;;;;;5113415;28;20164;-60
2021/01/03 06:23:30;;;;;;;1.50;1.40;;;16.10;28.70;;;;;;5094728;28;20169;-60
2021/01/03 06:26:04;;;;;;;1.65;1.55;;;16.00;28.10;;;;;;5113627;28;20153;-60
2021/01/03 06:28:39;;;;;;;1.70;1.60;;;16.00;28.10;;;;;;5113535;28;20512;-60
2021/01/03 06:31:04;;;;;;;1.80;1.70;;;16.10;28.20;;;;;;5129338;28;20160;-60
2021/01/03 06:33:48;;;;;;;1.77;1.67;;;16.10;28.20;;;;;;5114215;28;20165;-60
2021/01/03 06:36:20;;;;;;;1.90;1.80;;;16.10;28.20;;;;;;5117033;28;20149;-60
2021/01/03 06:39:15;;;;;;;1.70;1.60;;;16.10;28.20;;;;;;5116716;28;20149;-60
2021/01/03 06:41:49;;;;;;;1.55;1.42;;;16.10;28.20;;;;;;5132939;27;20212;-60
2021/01/03 06:44:33;;;;;;;1.52;1.42;;;16.10;28.20;;;;;;5117035;28;20173;-60
2021/01/03 06:47:28;;;;;;;1.50;1.40;;;16.10;28.20;;;;;;5117091;28;20146;-60
2021/01/03 06:50:17;;;;;;;1.25;1.15;;;16.10;28.20;;;;;;5080353;28;20193;-60
2021/01/03 06:53:12;;;;;;;1.50;1.40;;;16.10;28.20;;;;;;5105496;28;20185;-60
2021/01/03 06:56:00;;;;;;;1.60;1.50;;;16.10;28.20;;;;;;5116815;28;20165;-61
2021/01/03 06:58:45;;;;;;;1.30;1.20;;;16.10;28.10;;;;;;5132667;27;20236;-60
2021/01/03 07:01:35;;;;;;;1.60;1.50;;;16.10;28.20;;;;;;5116684;28;20205;-60
2021/01/03 07:04:12;;;;;;;1.75;1.65;;;16.10;28.20;;;;;;5132340;27;20703;-61
2021/01/03 07:06:39;;;;;;;1.90;1.80;;;16.10;28.20;;;;;;5116497;28;20168;-61
2021/01/03 07:09:10;;;;;;;1.63;1.52;;;16.10;28.20;;;;;;5131881;27;20674;-60
2021/01/03 07:11:44;;;;;;;1.75;1.65;;;16.10;28.20;;;;;;5116606;28;20161;-61
2021/01/03 07:14:32;;;;;;;2.00;1.80;;;16.10;28.20;;;;;;5116439;28;20153;-61
2021/01/03 07:17:14;;;;;;;1.48;1.30;;;16.20;28.20;;;;;;5116348;28;20176;-61
2021/01/03 07:19:57;;;;;;;1.73;1.63;;;16.20;28.20;;;;;;5116332;28;20191;-61
2021/01/03 07:22:48;;;;;;;1.80;1.70;;;16.10;28.10;;;;;;5115815;28;20149;-60
2021/01/03 07:25:27;;;;;;;1.42;1.33;;;16.10;28.10;;;;;;5116385;28;20657;-60
2021/01/03 07:28:12;;;;;;;1.40;1.30;;;16.20;28.20;;;;;;5116270;28;20195;-60
2021/01/03 07:31:21;;;;;;;1.75;1.65;;;16.20;28.20;;;;;;5116211;28;20168;-60
2021/01/03 07:34:06;;;;;;;1.80;1.70;;;16.20;28.20;;;;;;5094373;28;20205;-60
2021/01/03 07:36:40;;;;;;;1.80;1.70;;;16.20;28.20;;;;;;5116080;28;20149;-59
2021/01/03 07:39:14;;;;;;;1.67;1.58;;;16.20;28.20;;;;;;5115466;28;20181;-59
2021/01/03 07:41:41;;;;;;;1.30;1.20;;;16.20;28.20;;;;;;5115963;28;20161;-59
2021/01/03 07:44:20;;;;;;;1.70;1.60;;;16.20;28.20;;;;;;5115902;28;20498;-60
2021/01/03 07:46:55;;;;;;;1.83;1.70;;;16.20;28.20;;;;;;5096814;28;20153;-61
2021/01/03 07:49:46;;;;;;;1.40;1.30;;;16.20;28.20;;;;;;5115948;28;20191;-60
2021/01/03 07:52:18;;;;;;;1.70;1.60;;;16.20;28.20;;;;;;5115222;28;20157;-60
2021/01/03 07:54:52;;;;;;;1.20;1.10;;;16.30;28.30;;;;;;5097492;28;20168;-60
2021/01/03 07:57:19;;;;;;;1.58;1.40;;;16.20;28.10;;;;;;5115750;28;20165;-60
2021/01/03 07:59:48;;;;;;;2.00;1.60;;;16.30;28.20;;;;;;5115577;28;20188;-60
2021/01/03 08:02:16;;;;;;;1.80;1.63;;;16.20;28.20;;;;;;5115266;28;20157;-60
2021/01/03 08:04:42;;;;;;;1.20;1.10;;;16.20;28.10;;;;;;5115554;28;20161;-62
2021/01/03 08:07:11;;;;;;;1.70;1.60;;;16.20;28.10;;;;;;5114952;28;20168;-60
2021/01/03 08:09:37;;;;;;;1.63;1.52;;;16.30;28.20;;;;;;5115510;28;20608;-60
2021/01/03 08:12:40;;;;;;;1.80;1.70;;;16.30;28.20;;;;;;5097209;28;20248;-60
2021/01/03 08:15:12;;;;;;;2.78;1.50;;;16.30;28.20;;;;;;5115245;28;20156;-60
2021/01/03 08:17:41;;;;;;;1.80;1.70;;;16.30;28.70;;;;;;5115060;28;20600;-60
2021/01/03 08:20:20;;;;;;;1.90;1.80;;;16.30;28.10;;;;;;5115012;28;20325;-61
2021/01/03 08:22:46;;;;;;;2.00;1.60;;;16.30;28.10;;;;;;5114727;28;20228;-61
2021/01/03 08:25:27;;;;;;;1.85;1.70;;;16.30;28.10;;;;;;5115162;28;20160;-61
2021/01/03 08:28:16;;;;;;;1.58;1.48;;;16.40;28.10;;;;;;5115068;28;20141;-61
2021/01/03 08:30:43;;;;;;;2.08;1.98;;;16.40;28.10;;;;;;5085362;28;20177;-61
2021/01/03 08:33:42;;;;;;;1.60;1.50;;;16.40;28.10;;;;;;5114805;28;20231;-61
2021/01/03 08:36:29;;;;;;;1.70;1.60;;;16.40;28.10;;;;;;5114389;28;20536;-61
2021/01/03 08:39:03;;;;;;;1.40;1.30;;;16.40;28.10;;;;;;5114061;28;20288;-61
2021/01/03 08:41:36;;;;;;;1.55;1.45;;;16.40;28.00;;;;;;5114796;28;20191;-61
2021/01/03 08:44:03;;;;;;;1.30;1.17;;;16.40;28.00;;;;;;5114647;28;20157;-61
2021/01/03 08:46:34;;;;;;;1.30;1.20;;;16.40;28.60;;;;;;5114622;28;20141;-62
2021/01/03 08:49:07;;;;;;;1.52;1.42;;;16.40;28.00;;;;;;5079329;28;20200;-60
2021/01/03 08:51:33;;;;;;;2.08;1.52;;;16.40;28.00;;;;;;5114668;28;20677;-60
2021/01/03 08:54:01;;;;;;;1.60;1.50;;;16.50;28.10;;;;;;5114145;28;20605;-60
2021/01/03 08:56:34;;;;;;;2.10;1.38;;;16.50;28.00;;;;;;5114210;28;20631;-60
2021/01/03 08:59:00;;;;;;;1.50;1.40;;;16.50;28.00;;;;;;5114486;28;20157;-60
2021/01/03 09:01:34;;;;;;;1.90;1.55;;;16.50;28.00;;;;;;5114326;28;20616;-60
2021/01/03 09:04:07;;;;;;;1.70;1.60;;;16.50;28.00;;;;;;5114206;28;20217;-60
2021/01/03 09:06:34;;;;;;;1.75;1.40;;;16.50;27.90;;;;;;5114409;28;20248;-60
2021/01/03 09:09:26;;;;;;;1.77;1.30;;;16.60;28.00;;;;;;5113937;28;20161;-60
2021/01/03 09:11:53;;;;;;;1.38;1.27;;;16.50;27.90;;;;;;5105744;28;20569;-60
2021/01/03 09:14:23;;;;;;;1.98;1.35;;;16.50;27.90;;;;;;5114363;28;20154;-62
2021/01/03 09:17:04;;;;;;;1.75;1.63;;;16.60;27.90;;;;;;5114328;28;20146;-62
2021/01/03 09:20:06;;;;;;;1.40;1.30;;;16.60;27.90;;;;;;5096032;28;20185;-60
2021/01/03 09:22:51;;;;;;;1.23;1.13;;;16.60;27.90;;;;;;5113684;28;20228;-61
2021/01/03 09:25:36;;;;;;;1.52;1.42;;;16.60;27.90;;;;;;5114113;28;20504;-62
2021/01/03 09:28:20;;;;;;;1.48;1.38;;;16.60;27.80;;;;;;5114090;28;20185;-61
2021/01/03 09:30:46;;;;;;;1.40;1.30;;;16.60;27.80;;;;;;5114087;28;20596;-62
2021/01/03 09:33:15;;;;;;;1.70;1.60;;;16.60;27.80;;;;;;5114049;28;20177;-61
2021/01/03 09:36:35;;;;;;;1.40;1.25;;;16.70;27.80;;;;;;5113962;28;20164;-61
2021/01/03 09:39:34;;;;;;;1.45;1.35;;;16.70;27.80;;;;;;5030534;28;20176;-61
2021/01/03 09:42:13;;;;;;;1.50;1.40;;;16.70;27.70;;;;;;5031299;28;20507;-61
2021/01/03 09:44:52;;;;;;;1.58;1.48;;;16.70;27.70;;;;;;5031245;28;20160;-61
2021/01/03 09:47:17;;;;;;;1.20;1.10;;;16.70;27.70;;;;;;5076105;28;20191;-61
2021/01/03 09:49:45;;;;;;;1.97;1.67;;;16.70;27.60;;;;;;5113982;28;20176;-61
2021/01/03 09:52:35;;;;;;;1.60;1.50;;;16.70;27.60;;;;;;5113227;28;20160;-61
2021/01/03 09:55:03;;;;;;;1.48;1.38;;;16.70;27.60;;;;;;5113981;28;20219;-61
2021/01/03 09:57:54;;;;;;;1.42;1.33;;;16.80;27.60;;;;;;5113910;28;20654;-61
2021/01/03 10:00:53;;;;;;;1.42;1.33;;;16.80;27.60;;;;;;5095383;28;20193;-61
2021/01/03 10:03:42;;;;;;;1.58;1.48;;;16.80;27.60;;;;;;5113656;28;20295;-61
2021/01/03 10:06:14;;;;;;;1.50;1.40;;;16.80;27.50;;;;;;5113836;28;20149;-61
2021/01/03 10:08:40;;;;;;;1.40;1.30;;;16.80;27.50;;;;;;5114393;28;20179;-61
2021/01/03 10:11:06;;;;;;;1.67;1.57;;;16.90;27.50;;;;;;5117752;28;20161;-61
2021/01/03 10:13:31;;;;;;;1.55;1.45;;;16.90;27.40;;;;;;5117467;28;20198;-61
2021/01/03 10:15:58;;;;;;;1.33;1.23;;;16.90;27.30;;;;;;5117726;28;20165;-61
2021/01/03 10:18:41;;;;;;;2.67;1.67;;;17.00;27.40;;;;;;5117533;28;20160;-61
2021/01/03 10:21:36;;;;;;;1.55;1.45;;;17.00;27.50;;;;;;5117569;28;20535;-61
2021/01/03 10:24:23;;;;;;;1.95;1.85;;;17.00;27.20;;;;;;5116999;28;20146;-61
2021/01/03 10:27:12;;;;;;;1.50;1.40;;;17.00;27.20;;;;;;5117475;28;20146;-61
2021/01/03 10:29:38;;;;;;;1.27;1.17;;;17.10;27.20;;;;;;5117435;28;20160;-64
2021/01/03 10:32:04;;;;;;;1.52;1.42;;;17.10;27.10;;;;;;5117332;28;20233;-62
2021/01/03 10:34:30;;;;;;;1.60;1.50;;;18.80;28.30;;;;;;5117647;28;20192;-64
2021/01/03 10:36:57;;;;;;;1.40;1.30;;;17.10;27.10;;;;;;5116917;28;20405;-63
2021/01/03 10:39:23;;;;;;;1.60;1.35;;;17.10;27.10;;;;;;5117219;28;20212;-63
2021/01/03 10:41:49;;;;;;;1.63;1.52;;;17.10;27.10;;;;;;5117164;28;20181;-62
2021/01/03 10:44:15;;;;;;;1.20;1.10;;;17.10;27.10;;;;;;5117318;28;20639;-62
2021/01/03 10:46:41;;;;;;;1.50;1.40;;;17.10;27.10;;;;;;5117178;28;20628;-62
2021/01/03 10:49:09;;;;;;;1.65;1.55;;;17.10;27.10;;;;;;5116956;28;20211;-63
2021/01/03 10:51:38;;;;;;;1.52;1.42;;;17.00;27.00;;;;;;5098699;28;20192;-62
2021/01/03 10:54:05;;;;;;;1.40;1.30;;;17.00;27.10;;;;;;5116544;28;20161;-62
2021/01/03 10:56:35;;;;;;;1.63;1.52;;;17.00;27.10;;;;;;5116821;28;20169;-62
2021/01/03 10:59:01;;;;;;;1.60;1.50;;;17.00;27.10;;;;;;5116696;28;20172;-62
2021/01/03 11:01:26;;;;;;;2.00;1.90;;;17.00;27.10;;;;;;5116812;28;20160;-62
2021/01/03 11:03:53;;;;;;;1.60;1.50;;;17.00;27.10;;;;;;5116645;28;20213;-62
2021/01/03 11:06:19;;;;;;;1.73;1.63;;;17.00;27.10;;;;;;5116618;28;20236;-61
2021/01/03 11:08:45;;;;;;;1.60;1.50;;;17.00;27.20;;;;;;5116328;28;20287;-62
2021/01/03 11:11:17;;;;;;;2.07;1.87;;;17.00;27.20;;;;;;5116420;28;20569;-63
2021/01/03 11:13:42;;;;;;;1.75;1.58;;;17.00;27.20;;;;;;5116440;28;20418;-63
2021/01/03 11:16:08;;;;;;;1.53;1.43;;;17.00;27.40;;;;;;5116621;28;20510;-63
2021/01/03 11:18:34;;;;;;;1.30;1.20;;;17.00;27.20;;;;;;5116476;28;20577;-62
2021/01/03 11:21:00;;;;;;;1.52;1.42;;;17.00;27.20;;;;;;5116358;28;20447;-62
2021/01/03 11:23:26;;;;;;;2.80;1.30;;;17.00;27.30;;;;;;5116016;28;20180;-62
2021/01/03 11:25:51;;;;;;;1.63;1.53;;;17.00;27.30;;;;;;5116313;28;20508;-63
2021/01/03 11:28:17;;;;;;;1.30;1.20;;;17.00;27.30;;;;;;5116227;28;20161;-62
2021/01/03 11:30:43;;;;;;;1.77;1.67;;;17.00;27.30;;;;;;5116305;28;20195;-62
2021/01/03 11:33:09;;;;;;;1.70;1.60;;;17.00;27.30;;;;;;5116098;28;20403;-62
2021/01/03 11:35:34;;;;;;;2.50;1.63;;;17.00;27.40;;;;;;5116185;28;20654;-62
2021/01/03 11:38:03;;;;;;;1.60;1.50;;;17.00;27.40;;;;;;5115751;28;20169;-61
2021/01/03 11:40:28;;;;;;;2.20;1.63;;;16.90;27.30;;;;;;5115883;28;20533;-62
2021/01/03 11:42:57;;;;;;;1.47;1.37;;;17.00;27.40;;;;;;5115945;28;20174;-63
2021/01/03 11:45:23;;;;;;;1.50;1.40;;;16.90;27.30;;;;;;5115736;28;20236;-62
2021/01/03 11:47:49;;;;;;;1.60;1.50;;;17.00;27.40;;;;;;5115947;28;20601;-62
2021/01/03 11:50:18;;;;;;;1.58;1.30;;;17.00;27.40;;;;;;5115382;28;20319;-63
2021/01/03 11:52:44;;;;;;;1.40;1.13;;;17.00;27.30;;;;;;5115387;28;20164;-63
2021/01/03 11:55:12;;;;;;;1.80;1.70;;;17.00;27.30;;;;;;5115592;28;20157;-63
2021/01/03 11:57:37;;;;;;;1.83;1.48;;;17.00;27.30;;;;;;5115634;28;20377;-62
2021/01/03 12:00:09;;;;;;;1.43;1.33;;;17.00;27.30;;;;;;5115610;28;20209;-63
2021/01/03 12:02:35;;;;;;;1.60;1.50;;;17.00;27.30;;;;;;5115447;28;20208;-63
2021/01/03 12:05:00;;;;;;;1.60;1.50;;;17.00;27.20;;;;;;5115618;28;20157;-63
2021/01/03 12:07:26;;;;;;;1.97;1.60;;;17.00;27.20;;;;;;5115182;28;20593;-63
2021/01/03 12:09:52;;;;;;;1.20;1.10;;;17.00;27.20;;;;;;5115286;28;20680;-63
2021/01/03 12:12:20;;;;;;;1.80;1.40;;;17.00;27.20;;;;;;5115263;28;20796;-63
2021/01/03 12:14:46;;;;;;;3.65;1.70;;;17.00;27.20;;;;;;5097362;28;20207;-62
2021/01/03 12:17:16;;;;;;;1.73;1.63;;;17.10;27.20;;;;;;5115188;28;20160;-63
2021/01/03 12:19:42;;;;;;;1.50;1.40;;;17.00;27.20;;;;;;5115203;28;20188;-62
2021/01/03 12:22:08;;;;;;;1.67;1.58;;;17.00;27.20;;;;;;5114651;28;20199;-63
2021/01/03 12:24:34;;;;;;;1.70;1.60;;;17.00;27.20;;;;;;5115137;28;20153;-63
2021/01/03 12:27:03;;;;;;;2.00;1.50;;;17.00;27.20;;;;;;5114956;28;20145;-61
2021/01/03 12:29:30;;;;;;;1.40;1.30;;;17.00;27.10;;;;;;5115159;28;20160;-62
2021/01/03 12:31:58;;;;;;;2.05;1.50;;;17.00;27.10;;;;;;5114366;28;20153;-62
2021/01/03 12:34:27;;;;;;;1.80;1.55;;;17.10;27.20;;;;;;5114947;28;20176;-62
2021/01/03 12:37:04;;;;;;;1.60;1.50;;;17.00;27.10;;;;;;5114705;28;20603;-61
2021/01/03 12:39:31;;;;;;;1.60;1.50;;;17.00;27.10;;;;;;5114693;28;20206;-62
2021/01/03 12:41:57;;;;;;;1.40;1.30;;;17.00;27.10;;;;;;5114874;28;20156;-62
2021/01/03 12:44:23;;;;;;;1.73;1.63;;;17.10;27.20;;;;;;5114782;28;20150;-63
2021/01/03 12:46:48;;;;;;;1.98;1.35;;;17.10;27.20;;;;;;5114759;28;20395;-61
2021/01/03 12:49:14;;;;;;;1.87;1.77;;;17.10;27.10;;;;;;5114418;28;20521;-63
2021/01/03 12:51:40;;;;;;;1.80;1.70;;;17.10;27.10;;;;;;5096715;28;20157;-63
2021/01/03 12:54:07;;;;;;;3.17;1.67;;;17.10;27.10;;;;;;5113984;28;20232;-64
2021/01/03 12:56:33;;;;;;;1.77;1.67;;;17.10;27.10;;;;;;5114534;28;20154;-62
2021/01/03 12:59:03;;;;;;;1.77;1.67;;;17.10;27.10;;;;;;5114495;28;20161;-63
2021/01/03 13:01:38;;;;;;;1.88;1.50;;;17.10;27.10;;;;;;5114597;28;20151;-63
2021/01/03 13:04:06;;;;;;;1.88;1.30;;;17.10;27.10;;;;;;5114292;28;20670;-62
2021/01/03 13:06:36;;;;;;;2.03;1.83;;;17.10;27.10;;;;;;5114602;28;20153;-63
2021/01/03 13:09:04;;;;;;;1.73;1.63;;;17.10;27.60;;;;;;5113887;28;20173;-63
2021/01/03 13:11:37;;;;;;;1.70;1.60;;;17.10;27.10;;;;;;5114698;28;20182;-62
2021/01/03 13:14:09;;;;;;;1.48;1.38;;;17.10;27.10;;;;;;5114393;28;20157;-62